createdAt,value
2023-01-26T00:00:45.745Z,4.39
2023-01-26T00:05:00.550Z,4.36
2023-01-26T00:09:04.677Z,4.32
2023-01-26T00:13:09.193Z,4.30
2023-01-26T00:17:27.303Z,4.29
2023-01-26T00:21:30.297Z,4.26
2023-01-26T00:25:42.090Z,4.24
2023-01-26T00:30:10.767Z,4.21
2023-01-26T00:34:13.755Z,4.15
2023-01-26T00:38:20.229Z,4.06
2023-01-26T00:42:24.171Z,3.88
2023-01-26T00:46:29.017Z,3.70
2023-01-26T00:51:38.952Z,3.60
2023-01-26T00:55:41.712Z,3.55
2023-01-26T00:59:44.526Z,3.48
2023-01-26T01:03:47.436Z,3.38
2023-01-26T01:07:50.802Z,3.34
2023-01-26T01:11:53.570Z,3.34
2023-01-26T01:15:56.311Z,3.32
2023-01-26T01:20:11.118Z,3.33
2023-01-26T01:24:14.636Z,3.39
2023-01-26T01:28:18.701Z,3.38
2023-01-26T01:32:21.791Z,3.30
2023-01-26T01:36:25.016Z,3.17
2023-01-26T01:40:28.211Z,3.13
2023-01-26T01:45:09.904Z,3.15
2023-01-26T01:49:27.169Z,3.12
2023-01-26T01:53:38.319Z,3.09
2023-01-26T01:57:53.681Z,3.02
2023-01-26T02:01:57.745Z,3.01
2023-01-26T02:06:34.493Z,2.97
2023-01-26T02:10:38.323Z,2.97
2023-01-26T02:14:41.909Z,3.01
2023-01-26T02:18:47.804Z,3.04
2023-01-26T02:23:29.243Z,3.02
2023-01-26T02:27:32.627Z,3.02
2023-01-26T02:31:37.267Z,2.97
2023-01-26T02:35:45.600Z,3.00
2023-01-26T02:39:57.158Z,3.00
2023-01-26T02:44:00.817Z,2.97
2023-01-26T02:48:06.768Z,3.01
2023-01-26T02:52:09.760Z,3.08
2023-01-26T02:56:12.696Z,3.09
2023-01-26T03:00:25.571Z,3.10
2023-01-26T03:04:28.751Z,3.15
2023-01-26T03:08:31.671Z,3.13
2023-01-26T03:12:36.759Z,3.16
2023-01-26T03:16:40.040Z,3.19
2023-01-26T03:30:19.210Z,3.12
2023-01-26T03:35:16.187Z,3.12
2023-01-26T03:44:47.318Z,3.29
2023-01-26T03:49:08.786Z,3.29
2023-01-26T03:53:35.791Z,3.29
2023-01-26T03:57:39.985Z,3.18
2023-01-26T04:02:09.002Z,3.06
2023-01-26T04:06:30.571Z,3.05
2023-01-26T04:10:33.525Z,3.07
2023-01-26T04:14:55.024Z,3.07
2023-01-26T04:19:16.426Z,3.02
2023-01-26T04:23:20.091Z,2.91
2023-01-26T04:27:23.876Z,2.84
2023-01-26T04:31:26.605Z,2.84
2023-01-26T04:35:29.380Z,2.84
2023-01-26T04:39:32.164Z,2.78
2023-01-26T04:43:34.958Z,2.73
2023-01-26T04:47:37.818Z,2.71
2023-01-26T04:51:40.789Z,2.69
2023-01-26T04:56:00.520Z,2.69
2023-01-26T05:00:05.107Z,2.71
2023-01-26T05:04:11.586Z,2.75
2023-01-26T05:08:41.782Z,2.76
2023-01-26T05:12:44.642Z,2.83
2023-01-26T05:16:48.403Z,2.92
2023-01-26T05:20:51.171Z,2.93
2023-01-26T05:24:53.911Z,2.86
2023-01-26T05:28:56.732Z,2.84
2023-01-26T05:33:05.241Z,2.93
2023-01-26T05:37:09.319Z,2.97
2023-01-26T05:41:12.232Z,3.01
2023-01-26T05:45:15.281Z,3.00
2023-01-26T05:49:18.271Z,2.98
2023-01-26T05:53:21.184Z,3.00
2023-01-26T05:57:24.398Z,3.10
2023-01-26T06:02:20.556Z,3.19
2023-01-26T06:06:23.658Z,3.21
2023-01-26T06:10:26.863Z,3.33
2023-01-26T06:14:29.688Z,3.46
2023-01-26T06:18:42.015Z,3.49
2023-01-26T06:22:44.796Z,3.40
2023-01-26T06:26:49.497Z,3.28
2023-01-26T06:30:53.760Z,3.17
2023-01-26T06:34:56.597Z,3.09
2023-01-26T06:39:25.718Z,3.08
2023-01-26T06:43:35.788Z,3.16
2023-01-26T06:47:38.685Z,3.20
2023-01-26T06:52:28.544Z,3.10
2023-01-26T06:56:31.410Z,2.99
2023-01-26T07:00:34.369Z,3.01
2023-01-26T07:04:51.464Z,3.05
2023-01-26T07:08:54.318Z,3.07
2023-01-26T07:12:57.132Z,3.13
2023-01-26T07:17:03.014Z,3.21
2023-01-26T07:21:31.885Z,3.38
2023-01-26T07:25:59.981Z,3.57
2023-01-26T07:30:53.023Z,3.71
2023-01-26T07:35:45.826Z,3.83
2023-01-26T07:39:49.190Z,3.91
2023-01-26T07:43:52.024Z,3.92
2023-01-26T07:48:24.157Z,3.95
2023-01-26T07:52:52.594Z,3.97
2023-01-26T07:56:55.431Z,4.01
2023-01-26T08:01:08.450Z,4.08
2023-01-26T08:05:11.618Z,4.13
2023-01-26T08:09:14.755Z,4.15
2023-01-26T08:13:29.956Z,4.11
2023-01-26T08:17:46.688Z,4.06
2023-01-26T08:21:51.417Z,4.07
2023-01-26T08:25:54.590Z,4.06
2023-01-26T08:29:57.408Z,4.08
2023-01-26T08:34:00.330Z,4.07
2023-01-26T08:38:04.727Z,4.11
2023-01-26T08:42:07.900Z,4.11
2023-01-26T08:46:20.963Z,4.09
2023-01-26T08:50:25.671Z,4.12
2023-01-26T08:54:29.053Z,4.14
2023-01-26T08:58:33.933Z,4.13
2023-01-26T09:02:36.799Z,4.12
2023-01-26T09:06:39.965Z,4.13
2023-01-26T09:10:45.350Z,4.05
2023-01-26T09:14:48.207Z,3.99
2023-01-26T09:19:19.090Z,3.92
2023-01-26T09:23:48.522Z,3.85
2023-01-26T09:27:51.317Z,3.85
2023-01-26T09:31:54.212Z,3.70
2023-01-26T09:35:57.136Z,3.58
2023-01-26T09:39:59.950Z,3.50
2023-01-26T09:44:41.161Z,3.35
2023-01-26T09:49:01.435Z,3.19
2023-01-26T09:53:15.530Z,3.19
2023-01-26T09:57:24.948Z,3.19
2023-01-26T10:02:09.047Z,3.20
2023-01-26T10:06:15.231Z,3.19
2023-01-26T10:10:30.497Z,3.22
2023-01-26T10:14:52.928Z,3.08
2023-01-26T10:19:42.572Z,3.06
2023-01-26T10:23:51.566Z,3.09
2023-01-26T10:27:54.685Z,3.13
2023-01-26T10:31:57.589Z,2.99
2023-01-26T10:36:05.297Z,3.07
2023-01-26T10:40:28.798Z,3.15
2023-01-26T10:44:37.874Z,3.21
2023-01-26T10:48:52.908Z,3.29
2023-01-26T10:53:09.462Z,3.32
2023-01-26T10:57:19.744Z,3.44
2023-01-26T11:01:27.879Z,3.58
2023-01-26T11:05:32.047Z,3.62
2023-01-26T11:09:34.854Z,3.60
2023-01-26T11:13:37.680Z,3.64
2023-01-26T11:17:56.489Z,3.69
2023-01-26T11:22:09.701Z,3.79
2023-01-26T11:26:30.923Z,3.81
2023-01-26T11:31:12.092Z,3.86
2023-01-26T11:35:53.911Z,3.90
2023-01-26T11:40:13.818Z,3.94
2023-01-26T11:44:22.711Z,4.01
2023-01-26T11:49:06.250Z,4.13
2023-01-26T11:53:57.149Z,4.26
2023-01-26T11:58:35.296Z,4.34
2023-01-26T12:02:38.296Z,4.26
2023-01-26T12:06:56.306Z,4.09
2023-01-26T12:11:22.955Z,3.95
2023-01-26T12:15:34.361Z,3.97
2023-01-26T12:19:46.024Z,4.00
2023-01-26T12:24:48.318Z,3.91
2023-01-26T12:29:29.756Z,3.84
2023-01-26T12:33:34.545Z,3.94
2023-01-26T12:38:18.161Z,3.96
2023-01-26T12:42:29.598Z,3.95
2023-01-26T12:46:39.422Z,3.92
2023-01-26T12:51:30.275Z,3.85
2023-01-26T13:01:20.770Z,3.79
2023-01-26T13:05:33.674Z,3.83
2023-01-26T13:09:36.494Z,3.83
2023-01-26T13:14:17.155Z,3.91
2023-01-26T13:18:50.523Z,4.03
2023-01-26T13:22:55.125Z,4.03
2023-01-26T13:27:01.582Z,4.07
2023-01-26T13:31:06.698Z,4.02
2023-01-26T13:35:14.081Z,4.01
2023-01-26T13:39:44.470Z,3.98
2023-01-26T13:44:16.970Z,3.99
2023-01-26T13:48:54.087Z,4.03
2023-01-26T13:52:58.627Z,4.01
2023-01-26T13:57:06.340Z,4.02
2023-01-26T14:01:14.044Z,4.00
2023-01-26T14:05:23.331Z,3.92
2023-01-26T14:09:29.369Z,3.87
2023-01-26T14:13:39.068Z,3.85
2023-01-26T14:18:05.917Z,3.96
2023-01-26T14:22:16.747Z,4.02
2023-01-26T14:26:55.069Z,4.04
2023-01-26T14:31:38.667Z,3.98
2023-01-26T14:35:43.662Z,3.86
2023-01-26T14:40:22.934Z,3.76
2023-01-26T14:44:25.903Z,3.72
2023-01-26T14:48:37.980Z,3.73
2023-01-26T14:52:46.009Z,3.76
2023-01-26T14:56:50.219Z,3.85
2023-01-26T15:01:03.197Z,3.87
2023-01-26T15:09:57.941Z,3.92
2023-01-26T15:14:00.805Z,3.91
2023-01-26T15:19:01.230Z,3.81
2023-01-26T15:23:25.369Z,3.82
2023-01-26T15:27:36.368Z,3.83
2023-01-26T15:31:42.439Z,3.80
2023-01-26T15:35:58.056Z,3.78
2023-01-26T15:40:00.861Z,3.71
2023-01-26T15:44:03.909Z,3.62
2023-01-26T15:48:07.344Z,3.61
2023-01-26T15:52:37.254Z,3.64
2023-01-26T15:56:40.099Z,3.62
2023-01-26T16:00:42.997Z,3.61
2023-01-26T16:04:45.987Z,3.59
2023-01-26T16:08:49.399Z,3.62
2023-01-26T16:12:53.191Z,3.62
2023-01-26T16:16:56.200Z,3.63
2023-01-26T16:20:59.003Z,3.62
2023-01-26T16:25:02.559Z,3.65
2023-01-26T16:29:05.519Z,3.66
2023-01-26T16:38:52.651Z,3.71
2023-01-26T16:42:55.434Z,3.67
2023-01-26T16:46:58.202Z,3.60
2023-01-26T16:51:11.807Z,3.54
2023-01-26T16:55:16.215Z,3.46
2023-01-26T16:59:19.102Z,3.40
2023-01-26T17:03:37.594Z,3.38
2023-01-26T17:07:40.479Z,3.44
2023-01-26T17:11:43.541Z,3.42
2023-01-26T17:15:46.663Z,3.47
2023-01-26T17:19:49.521Z,3.49
2023-01-26T17:23:55.555Z,3.50
2023-01-26T17:27:58.429Z,3.48
2023-01-26T17:32:02.182Z,3.39
2023-01-26T17:36:07.068Z,3.30
2023-01-26T17:40:10.664Z,3.11
2023-01-26T17:44:15.697Z,2.88
2023-01-26T17:48:18.523Z,2.67
2023-01-26T17:52:49.458Z,2.52
2023-01-26T17:56:54.998Z,2.49
2023-01-26T18:00:57.809Z,2.54
2023-01-26T18:05:01.130Z,2.62
2023-01-26T18:09:12.585Z,2.58
2023-01-26T18:13:16.365Z,2.63
2023-01-26T18:17:19.150Z,2.56
2023-01-26T18:21:24.965Z,2.55
2023-01-26T18:25:46.592Z,2.60
2023-01-26T18:29:49.431Z,2.58
2023-01-26T18:33:52.884Z,2.56
2023-01-26T18:37:55.702Z,2.60
2023-01-26T18:41:58.488Z,2.56
2023-01-26T18:46:03.451Z,2.59
2023-01-26T18:50:07.530Z,2.61
2023-01-26T18:54:10.430Z,2.63
2023-01-26T18:58:13.642Z,2.69
2023-01-26T19:08:32.534Z,2.60
2023-01-26T19:12:35.432Z,2.58
2023-01-26T19:16:49.081Z,2.61
2023-01-26T19:21:00.419Z,2.61
2023-01-26T19:25:03.348Z,2.54
2023-01-26T19:29:31.574Z,2.52
2023-01-26T19:33:34.407Z,2.48
2023-01-26T19:37:37.210Z,2.51
2023-01-26T19:41:40.364Z,2.52
2023-01-26T19:45:51.456Z,2.47
2023-01-26T19:49:54.226Z,2.45
2023-01-26T19:53:58.685Z,2.51
2023-01-26T19:58:01.642Z,2.51
2023-01-26T20:02:04.774Z,2.53
2023-01-26T20:06:16.979Z,2.52
2023-01-26T20:10:19.837Z,2.56
2023-01-26T20:14:26.772Z,2.66
2023-01-26T20:18:29.719Z,2.72
2023-01-26T20:22:34.166Z,2.81
2023-01-26T20:26:36.936Z,2.87
2023-01-26T20:31:15.685Z,2.93
2023-01-26T20:35:18.648Z,2.91
2023-01-26T20:39:25.475Z,2.90
2023-01-26T20:44:01.977Z,2.90
2023-01-26T20:48:05.379Z,2.93
2023-01-26T20:52:08.470Z,2.98
2023-01-26T20:56:15.863Z,3.02
2023-01-26T21:00:20.222Z,2.96
2023-01-26T21:04:23.626Z,2.96
2023-01-26T21:08:26.597Z,2.93
2023-01-26T21:12:29.575Z,2.83
2023-01-26T21:17:36.182Z,2.70
2023-01-26T21:21:38.977Z,2.71
2023-01-26T21:25:41.716Z,2.74
2023-01-26T21:29:44.568Z,2.73
2023-01-26T21:33:49.588Z,2.74
2023-01-26T21:37:56.130Z,2.70
2023-01-26T21:41:59.732Z,2.69
2023-01-26T21:46:02.549Z,2.70
2023-01-26T21:50:06.424Z,2.69
2023-01-26T21:54:09.299Z,2.73
2023-01-26T21:58:30.809Z,2.78
2023-01-26T22:02:33.908Z,2.82
2023-01-26T22:07:03.760Z,2.81
2023-01-26T22:11:08.186Z,2.79
2023-01-26T22:15:11.611Z,2.74
2023-01-26T22:19:15.767Z,2.68
2023-01-26T22:23:18.837Z,2.67
2023-01-26T22:27:21.978Z,2.67
2023-01-26T22:31:28.154Z,2.63
2023-01-26T22:35:33.041Z,2.61
2023-01-26T22:39:40.139Z,2.62
2023-01-26T22:43:44.312Z,2.59
2023-01-26T22:47:51.133Z,2.59
2023-01-26T22:51:55.722Z,2.54
2023-01-26T22:55:59.030Z,2.57
2023-01-26T23:00:02.814Z,2.54
2023-01-26T23:04:07.569Z,2.53
2023-01-26T23:08:10.846Z,2.58
2023-01-26T23:12:14.199Z,2.58
2023-01-26T23:16:17.992Z,2.51
2023-01-26T23:20:22.273Z,2.43
2023-01-26T23:24:25.419Z,2.35
2023-01-26T23:28:32.231Z,2.33
2023-01-26T23:32:35.499Z,2.33
2023-01-26T23:36:38.881Z,2.32
2023-01-26T23:40:43.885Z,2.32
2023-01-26T23:44:47.093Z,2.30
2023-01-26T23:48:50.247Z,2.32
2023-01-26T23:52:53.548Z,2.37
2023-01-26T23:56:56.751Z,2.44
